Time;durP1;ratioP1;P1;durP2;ratioP2;P2;SDS_P1;SDS_P2;PMS_P1;PMS_P2;Temp;Humidity;BMP_temperature;BMP_pressure;BME280_temperature;BME280_humidity;BME280_pressure;Samples;Min_cycle;Max_cycle;Signal;HPM_P1;HPM_P2
2024/05/05 00:00:28;;;;;;;2.28;0.60;;;15.30;94.70;;;;;;5346252;26;20000;-71
2024/05/05 00:02:54;;;;;;;4.28;0.60;;;15.40;94.80;;;;;;5346685;26;20033;-72
2024/05/05 00:05:20;;;;;;;1.13;0.55;;;15.50;94.70;;;;;;5345960;26;20011;-72
2024/05/05 00:07:45;;;;;;;1.48;0.80;;;15.50;94.60;;;;;;5347011;26;19989;-73
2024/05/05 00:10:11;;;;;;;1.58;0.63;;;15.60;94.50;;;;;;5346233;26;20024;-73
2024/05/05 00:12:36;;;;;;;1.65;0.73;;;15.60;94.60;;;;;;5346413;26;19993;-72
2024/05/05 00:15:04;;;;;;;0.98;0.40;;;15.60;94.60;;;;;;5346014;26;20012;-73
2024/05/05 00:17:30;;;;;;;2.78;0.80;;;15.60;94.70;;;;;;5346264;26;20310;-73
2024/05/05 00:19:56;;;;;;;1.45;0.50;;;15.70;94.80;;;;;;5346390;26;20015;-73
2024/05/05 00:22:23;;;;;;;1.52;0.57;;;15.60;94.90;;;;;;5346385;26;19997;-74
2024/05/05 00:24:48;;;;;;;2.38;0.90;;;15.60;94.90;;;;;;5345792;26;20054;-73
2024/05/05 00:27:14;;;;;;;0.80;0.55;;;15.60;95.00;;;;;;5345963;26;20410;-71
2024/05/05 00:29:40;;;;;;;1.85;0.60;;;15.70;95.10;;;;;;5345970;26;19993;-74
2024/05/05 00:32:05;;;;;;;1.25;0.47;;;15.70;95.20;;;;;;5346027;26;20001;-74
2024/05/05 00:34:31;;;;;;;0.93;0.55;;;15.70;95.00;;;;;;5345736;26;20011;-71
2024/05/05 00:36:57;;;;;;;2.97;0.82;;;15.80;95.20;;;;;;5315754;26;19997;-74
2024/05/05 00:39:23;;;;;;;1.67;0.40;;;15.80;95.10;;;;;;5345953;26;20449;-72
2024/05/05 00:41:49;;;;;;;1.30;0.50;;;15.80;95.10;;;;;;5345639;26;19997;-75
2024/05/05 00:44:14;;;;;;;0.43;0.38;;;15.90;95.10;;;;;;5348163;26;19997;-72
2024/05/05 00:46:40;;;;;;;1.15;0.50;;;15.80;95.10;;;;;;5348725;26;20001;-72
2024/05/05 00:49:06;;;;;;;0.88;0.47;;;15.80;95.50;;;;;;5349091;26;20322;-73
2024/05/05 00:51:33;;;;;;;2.33;0.52;;;15.80;95.50;;;;;;5348937;26;20111;-74
2024/05/05 00:54:00;;;;;;;0.82;0.60;;;15.80;96.00;;;;;;5348981;26;20004;-72
2024/05/05 00:56:27;;;;;;;0.88;0.50;;;15.80;95.60;;;;;;5348935;26;20066;-71
2024/05/05 00:58:54;;;;;;;1.08;0.60;;;15.90;95.70;;;;;;5348890;26;20009;-73
2024/05/05 01:01:19;;;;;;;1.17;0.55;;;15.80;95.90;;;;;;5348807;26;20016;-72
2024/05/05 01:03:45;;;;;;;1.65;0.60;;;15.80;95.90;;;;;;5348442;26;20008;-73
2024/05/05 01:06:11;;;;;;;3.05;0.55;;;15.80;96.20;;;;;;5349084;26;20001;-72
2024/05/05 01:08:37;;;;;;;1.10;0.50;;;15.80;96.70;;;;;;5348973;26;20067;-70
2024/05/05 01:11:02;;;;;;;1.83;0.73;;;15.70;97.20;;;;;;5349048;26;20008;-70
2024/05/05 01:13:28;;;;;;;1.67;0.60;;;15.80;97.60;;;;;;5348177;26;20112;-71
2024/05/05 01:15:54;;;;;;;1.30;0.80;;;15.70;98.20;;;;;;5348672;26;20005;-71
2024/05/05 01:18:19;;;;;;;1.70;0.60;;;15.70;98.30;;;;;;5348578;26;19997;-74
2024/05/05 01:20:45;;;;;;;1.65;0.50;;;15.70;98.70;;;;;;5348957;26;20008;-74
2024/05/05 01:23:10;;;;;;;1.73;0.60;;;15.70;98.60;;;;;;5348942;26;19997;-73
2024/05/05 01:25:36;;;;;;;1.23;0.50;;;15.70;98.80;;;;;;5348409;26;20008;-73
2024/05/05 01:28:02;;;;;;;1.80;0.45;;;15.70;99.10;;;;;;5348349;26;20057;-74
2024/05/05 01:30:27;;;;;;;2.20;0.30;;;15.70;99.30;;;;;;5349074;26;19993;-74
2024/05/05 01:32:53;;;;;;;1.05;0.50;;;15.70;99.70;;;;;;5348425;26;19997;-72
2024/05/05 01:35:19;;;;;;;1.95;0.60;;;15.60;99.90;;;;;;5348316;26;19997;-75
2024/05/05 01:37:44;;;;;;;0.93;0.30;;;15.60;99.90;;;;;;5348394;26;19997;-74
2024/05/05 01:40:11;;;;;;;0.80;0.50;;;15.60;99.90;;;;;;5348649;26;20449;-71
2024/05/05 01:42:36;;;;;;;1.55;0.68;;;15.50;99.90;;;;;;5348617;26;20001;-74
2024/05/05 01:45:02;;;;;;;2.53;0.60;;;15.50;99.90;;;;;;5347906;26;20019;-75
2024/05/05 01:47:27;;;;;;;0.60;0.40;;;15.50;99.90;;;;;;5348558;26;20001;-75
2024/05/05 01:49:53;;;;;;;1.30;0.47;;;15.40;99.90;;;;;;5348095;26;20000;-72
2024/05/05 01:52:19;;;;;;;2.00;0.50;;;15.30;99.90;;;;;;5348477;26;20001;-72
2024/05/05 01:54:46;;;;;;;1.95;0.60;;;15.30;99.90;;;;;;5347339;26;20001;-74
2024/05/05 01:57:11;;;;;;;1.88;0.60;;;15.20;99.90;;;;;;5348489;26;20001;-72
2024/05/05 01:59:37;;;;;;;1.17;0.50;;;15.20;99.90;;;;;;5348119;26;20473;-73
2024/05/05 02:02:02;;;;;;;1.10;0.60;;;15.10;99.90;;;;;;5348101;26;20502;-71
2024/05/05 02:04:28;;;;;;;1.17;0.40;;;15.00;99.90;;;;;;5347634;26;20012;-71
2024/05/05 02:06:54;;;;;;;2.65;0.70;;;14.80;99.90;;;;;;5348415;26;20004;-71
2024/05/05 02:09:19;;;;;;;1.20;0.55;;;14.80;99.90;;;;;;5347994;26;20005;-74
2024/05/05 02:11:45;;;;;;;2.40;0.70;;;14.80;99.90;;;;;;5348237;26;20546;-73
2024/05/05 02:14:10;;;;;;;0.75;0.40;;;14.70;99.90;;;;;;5347527;26;20048;-71
2024/05/05 02:16:36;;;;;;;1.23;0.75;;;14.60;99.90;;;;;;5348085;26;20078;-73
2024/05/05 02:19:02;;;;;;;1.05;0.60;;;14.60;99.90;;;;;;5347664;26;20201;-73
2024/05/05 02:21:27;;;;;;;3.65;0.70;;;14.50;99.90;;;;;;5348175;26;20005;-72
2024/05/05 02:23:53;;;;;;;1.55;0.43;;;14.40;99.90;;;;;;5347738;26;20000;-71
2024/05/05 02:26:18;;;;;;;1.40;0.52;;;14.30;99.90;;;;;;5347692;26;20016;-73
2024/05/05 02:28:44;;;;;;;2.30;0.63;;;14.30;99.90;;;;;;5347778;26;21838;-74
2024/05/05 02:31:10;;;;;;;1.70;0.60;;;14.30;99.90;;;;;;5347865;26;19997;-73
2024/05/05 02:33:35;;;;;;;1.30;0.75;;;14.40;99.90;;;;;;5347542;26;20322;-70
2024/05/05 02:36:01;;;;;;;1.45;0.60;;;14.30;99.90;;;;;;5347602;26;20445;-74
2024/05/05 02:38:26;;;;;;;2.38;0.70;;;14.30;99.90;;;;;;5347497;26;20019;-75
2024/05/05 02:40:52;;;;;;;2.05;0.55;;;14.30;99.90;;;;;;5347697;26;20012;-73
2024/05/05 02:43:18;;;;;;;0.50;0.40;;;14.30;99.90;;;;;;5347767;26;20012;-74
2024/05/05 02:45:43;;;;;;;0.90;0.60;;;14.30;99.90;;;;;;5347130;26;20353;-74
2024/05/05 02:48:09;;;;;;;0.93;0.45;;;14.30;99.90;;;;;;5347653;26;20016;-73
2024/05/05 02:50:34;;;;;;;0.77;0.52;;;14.20;99.90;;;;;;5347618;26;20029;-73
2024/05/05 02:53:00;;;;;;;0.47;0.40;;;14.20;99.90;;;;;;5348050;26;20011;-73
2024/05/05 02:55:26;;;;;;;1.30;0.63;;;14.20;99.90;;;;;;5347658;26;19996;-71
2024/05/05 02:57:51;;;;;;;0.90;0.40;;;14.10;99.90;;;;;;5347319;26;20004;-71
2024/05/05 03:00:17;;;;;;;0.90;0.50;;;14.20;99.90;;;;;;5347664;26;20012;-71
2024/05/05 03:02:43;;;;;;;1.58;0.68;;;14.20;99.90;;;;;;5347716;26;19997;-73
2024/05/05 03:05:09;;;;;;;1.33;0.60;;;14.10;99.90;;;;;;5347080;26;20008;-73
2024/05/05 03:07:35;;;;;;;1.45;0.80;;;14.10;99.90;;;;;;5345607;26;20036;-73
2024/05/05 03:10:01;;;;;;;2.63;0.60;;;14.10;99.90;;;;;;5347295;26;20001;-73
2024/05/05 03:12:26;;;;;;;0.77;0.50;;;14.00;99.90;;;;;;5347282;26;20428;-72
2024/05/05 03:14:53;;;;;;;2.10;1.00;;;14.00;99.90;;;;;;5346960;26;20619;-74
2024/05/05 03:17:19;;;;;;;2.35;0.60;;;13.90;99.90;;;;;;5347326;26;20029;-71
2024/05/05 03:19:45;;;;;;;1.70;0.70;;;13.90;99.90;;;;;;5347092;26;19997;-73
2024/05/05 03:22:11;;;;;;;1.50;0.65;;;13.80;99.90;;;;;;5344649;26;19997;-72
2024/05/05 03:24:38;;;;;;;3.45;0.60;;;13.80;99.90;;;;;;5346877;26;20015;-72
2024/05/05 03:27:07;;;;;;;0.95;0.57;;;13.80;99.90;;;;;;5346916;26;19997;-73
2024/05/05 03:29:33;;;;;;;1.13;0.60;;;13.70;99.90;;;;;;5347402;26;20063;-73
2024/05/05 03:31:58;;;;;;;1.50;0.55;;;13.70;99.90;;;;;;5346887;26;20016;-73
2024/05/05 03:34:24;;;;;;;1.00;0.50;;;13.70;99.90;;;;;;5346536;26;20047;-72
2024/05/05 03:36:50;;;;;;;1.48;0.63;;;13.60;99.90;;;;;;5347066;26;20334;-71
2024/05/05 03:39:15;;;;;;;2.35;0.60;;;13.60;99.90;;;;;;5346765;26;20007;-71
2024/05/05 03:41:41;;;;;;;2.28;0.52;;;13.60;99.90;;;;;;5345578;26;20013;-74
2024/05/05 03:44:07;;;;;;;0.60;0.40;;;13.50;99.90;;;;;;5346668;26;20008;-74
2024/05/05 03:46:33;;;;;;;2.33;0.70;;;13.50;99.90;;;;;;5346820;26;20013;-73
2024/05/05 03:48:58;;;;;;;0.75;0.40;;;13.50;99.90;;;;;;5346601;26;20009;-72
2024/05/05 03:51:24;;;;;;;0.60;0.40;;;13.40;99.90;;;;;;5345844;26;20360;-72
2024/05/05 03:53:50;;;;;;;0.43;0.38;;;13.40;99.90;;;;;;5346153;26;20453;-72
2024/05/05 03:56:15;;;;;;;0.95;0.20;;;13.40;99.90;;;;;;5346475;26;20008;-71
2024/05/05 03:58:41;;;;;;;0.60;0.40;;;13.40;99.90;;;;;;5346638;26;20008;-71
2024/05/05 04:01:07;;;;;;;0.85;0.32;;;13.40;99.90;;;;;;5346778;26;19993;-72
2024/05/05 04:03:32;;;;;;;0.60;0.30;;;13.40;99.90;;;;;;5315300;26;20013;-72
2024/05/05 04:05:58;;;;;;;1.85;0.40;;;13.40;99.90;;;;;;5346798;26;20013;-71
2024/05/05 04:08:24;;;;;;;0.63;0.40;;;13.40;99.90;;;;;;5346267;26;20000;-72
2024/05/05 04:10:49;;;;;;;0.73;0.38;;;13.40;99.90;;;;;;5344344;26;20034;-73
2024/05/05 04:13:15;;;;;;;0.40;0.28;;;13.50;99.90;;;;;;5345548;26;20069;-73
2024/05/05 04:15:40;;;;;;;3.05;0.50;;;13.40;99.90;;;;;;5345961;26;20337;-72
2024/05/05 04:18:06;;;;;;;0.52;0.20;;;13.40;99.90;;;;;;5344959;26;20012;-72
2024/05/05 04:20:32;;;;;;;0.20;0.20;;;13.40;99.90;;;;;;5345909;26;20056;-72
2024/05/05 04:22:57;;;;;;;0.98;0.30;;;13.40;99.90;;;;;;5345725;26;20073;-73
2024/05/05 04:25:23;;;;;;;0.30;0.15;;;13.50;99.90;;;;;;5314657;26;20040;-74
2024/05/05 04:27:49;;;;;;;0.63;0.25;;;13.50;99.90;;;;;;5345503;26;19993;-71
2024/05/05 04:30:14;;;;;;;0.45;0.30;;;13.60;99.90;;;;;;5333345;26;20004;-72
2024/05/05 04:32:40;;;;;;;0.32;0.22;;;13.60;99.90;;;;;;5343801;26;20077;-71
2024/05/05 04:35:06;;;;;;;0.35;0.20;;;13.50;99.90;;;;;;5343369;26;20008;-71
2024/05/05 04:37:31;;;;;;;0.45;0.40;;;13.60;99.90;;;;;;5344940;26;19996;-74
2024/05/05 04:39:57;;;;;;;1.42;0.63;;;13.60;99.90;;;;;;5344992;26;20001;-71
2024/05/05 04:42:23;;;;;;;0.63;0.22;;;13.70;99.90;;;;;;5345534;26;20008;-71
2024/05/05 04:44:48;;;;;;;0.55;0.20;;;13.80;99.90;;;;;;5345121;26;20008;-72
2024/05/05 04:47:14;;;;;;;2.05;0.45;;;13.80;99.90;;;;;;5345203;26;19997;-72
2024/05/05 04:49:39;;;;;;;0.90;0.40;;;13.80;99.90;;;;;;5344667;26;20400;-71
2024/05/05 04:52:05;;;;;;;0.35;0.30;;;13.80;99.90;;;;;;5345394;26;20008;-71
2024/05/05 04:54:31;;;;;;;0.17;0.13;;;13.90;99.90;;;;;;5345446;26;20310;-73
2024/05/05 04:56:56;;;;;;;0.52;0.20;;;13.90;99.90;;;;;;5344958;26;20350;-71
2024/05/05 04:59:22;;;;;;;0.95;0.50;;;13.90;99.90;;;;;;5344906;26;20005;-74
2024/05/05 05:01:48;;;;;;;0.55;0.40;;;14.00;99.90;;;;;;5344732;26;19997;-72
2024/05/05 05:04:13;;;;;;;0.40;0.22;;;14.00;99.90;;;;;;5344800;26;20000;-74
2024/05/05 05:06:39;;;;;;;0.68;0.30;;;14.10;99.90;;;;;;5344452;26;20001;-71
2024/05/05 05:09:05;;;;;;;0.35;0.20;;;14.10;99.90;;;;;;5345061;26;19993;-73
2024/05/05 05:11:34;;;;;;;0.50;0.30;;;14.10;99.90;;;;;;5344676;26;20001;-72
2024/05/05 05:14:06;;;;;;;1.98;0.45;;;14.20;99.90;;;;;;5344156;26;20011;-74
2024/05/05 05:16:33;;;;;;;;;;;14.20;99.90;;;;;;5345200;26;20107;-72
2024/05/05 05:18:59;;;;;;;1.50;0.70;;;14.20;99.90;;;;;;5344744;26;19969;-74
2024/05/05 05:21:24;;;;;;;3.03;1.55;;;14.30;99.90;;;;;;5344620;26;20024;-72
2024/05/05 05:23:50;;;;;;;1.27;0.50;;;14.30;99.90;;;;;;5344416;26;19993;-73
2024/05/05 05:26:19;;;;;;;0.25;0.20;;;14.40;99.90;;;;;;5344228;26;20396;-72
2024/05/05 05:28:44;;;;;;;1.25;0.28;;;14.40;99.90;;;;;;5343132;26;20003;-73
2024/05/05 05:31:10;;;;;;;0.30;0.20;;;14.40;99.90;;;;;;5346856;26;20033;-72
2024/05/05 05:33:36;;;;;;;0.52;0.28;;;14.40;99.90;;;;;;5347549;26;20012;-72
2024/05/05 05:36:04;;;;;;;1.23;0.30;;;14.50;99.90;;;;;;5347781;26;19997;-73
2024/05/05 05:38:29;;;;;;;0.75;0.40;;;14.50;99.90;;;;;;5347952;26;19997;-71
2024/05/05 05:40:55;;;;;;;0.93;0.43;;;14.50;99.90;;;;;;5347559;26;20374;-73
2024/05/05 05:43:21;;;;;;;0.40;0.30;;;14.50;99.90;;;;;;5347763;26;19997;-73
2024/05/05 05:45:46;;;;;;;10.65;4.63;;;14.50;99.90;;;;;;5347550;26;19997;-71
2024/05/05 05:48:12;;;;;;;4.85;1.50;;;14.50;99.90;;;;;;5347900;26;20005;-73
2024/05/05 05:50:37;;;;;;;1.80;0.73;;;14.50;99.90;;;;;;5347455;26;20519;-72
2024/05/05 05:53:03;;;;;;;2.15;1.20;;;14.60;99.90;;;;;;5347643;26;20024;-72
2024/05/05 05:55:29;;;;;;;2.75;1.20;;;14.60;99.90;;;;;;5347562;26;20111;-74
2024/05/05 05:57:54;;;;;;;2.75;1.13;;;14.60;99.90;;;;;;5347167;26;20004;-73
2024/05/05 06:00:20;;;;;;;1.50;0.50;;;14.70;99.90;;;;;;5347977;26;20005;-73
2024/05/05 06:02:45;;;;;;;0.55;0.45;;;14.80;99.90;;;;;;5345950;26;20011;-73
2024/05/05 06:05:11;;;;;;;0.40;0.30;;;14.80;99.90;;;;;;5328338;26;20021;-71
2024/05/05 06:07:37;;;;;;;0.63;0.32;;;14.90;99.90;;;;;;5342664;26;20001;-72
2024/05/05 06:10:03;;;;;;;2.00;0.60;;;14.90;99.90;;;;;;5331197;26;20013;-73
2024/05/05 06:12:28;;;;;;;3.67;2.35;;;14.90;99.90;;;;;;5330714;26;20009;-71
2024/05/05 06:14:54;;;;;;;2.70;1.63;;;15.10;99.90;;;;;;5342627;26;20052;-73
2024/05/05 06:17:20;;;;;;;0.57;0.50;;;15.20;99.90;;;;;;5347342;26;20009;-72
2024/05/05 06:19:46;;;;;;;0.63;0.50;;;15.20;99.90;;;;;;5347013;26;20081;-74
2024/05/05 06:22:12;;;;;;;1.17;0.68;;;15.50;99.90;;;;;;5347153;26;20429;-72
2024/05/05 06:24:37;;;;;;;1.40;0.60;;;15.70;99.90;;;;;;5347372;26;20009;-74
2024/05/05 06:27:03;;;;;;;0.50;0.40;;;15.90;99.90;;;;;;5347625;26;20063;-73
2024/05/05 06:29:29;;;;;;;0.63;0.47;;;16.00;99.90;;;;;;5347211;26;20009;-72
2024/05/05 06:31:54;;;;;;;1.25;0.52;;;16.20;99.90;;;;;;5347292;26;19997;-71
2024/05/05 06:34:20;;;;;;;1.02;0.40;;;16.40;99.90;;;;;;5346612;26;20011;-73
2024/05/05 06:36:45;;;;;;;0.35;0.20;;;16.50;99.90;;;;;;5347188;26;19993;-72
2024/05/05 06:39:11;;;;;;;2.40;0.43;;;16.70;99.90;;;;;;5346975;26;20471;-74
2024/05/05 06:41:37;;;;;;;2.55;0.45;;;17.00;99.90;;;;;;5346748;26;20004;-73
2024/05/05 06:44:02;;;;;;;0.88;0.30;;;17.20;99.90;;;;;;5342510;26;20000;-71
2024/05/05 06:46:28;;;;;;;0.20;0.20;;;17.50;99.90;;;;;;5338700;26;20479;-71
2024/05/05 06:48:54;;;;;;;0.10;0.10;;;17.70;99.90;;;;;;5346644;26;20325;-74
2024/05/05 06:51:24;;;;;;;0.30;0.20;;;18.20;99.90;;;;;;5344965;26;20008;-73
2024/05/05 06:53:50;;;;;;;0.88;0.25;;;18.40;99.90;;;;;;5346193;26;19997;-74
2024/05/05 06:56:16;;;;;;;0.80;0.52;;;18.60;99.90;;;;;;5346830;26;19997;-73
2024/05/05 06:58:41;;;;;;;1.35;0.73;;;18.90;99.90;;;;;;5346721;26;20004;-72
2024/05/05 07:01:07;;;;;;;0.73;0.45;;;19.20;99.90;;;;;;5346999;26;20012;-75
2024/05/05 07:03:33;;;;;;;1.70;0.47;;;19.70;99.90;;;;;;5346125;26;20007;-72
2024/05/05 07:05:58;;;;;;;3.40;1.10;;;20.50;99.90;;;;;;5346929;26;20008;-72
2024/05/05 07:08:25;;;;;;;1.70;0.70;;;21.20;99.90;;;;;;5346875;26;19997;-72
2024/05/05 07:10:50;;;;;;;2.20;0.43;;;22.80;99.80;;;;;;5346318;26;20020;-73
2024/05/05 07:13:16;;;;;;;0.60;0.20;;;25.10;92.80;;;;;;5346344;26;20457;-74
2024/05/05 07:15:42;;;;;;;1.75;0.50;;;27.10;83.50;;;;;;5346233;26;20013;-76
2024/05/05 07:18:07;;;;;;;1.20;0.32;;;28.70;75.90;;;;;;5324842;26;20442;-74
2024/05/05 07:20:33;;;;;;;0.25;0.10;;;30.20;66.90;;;;;;5323716;26;20009;-71
2024/05/05 07:23:01;;;;;;;0.20;0.15;;;31.50;60.80;;;;;;5316795;26;20005;-75
2024/05/05 07:25:27;;;;;;;3.00;0.40;;;31.50;59.10;;;;;;5311452;27;20002;-74
2024/05/05 07:27:52;;;;;;;0.52;0.43;;;33.30;55.20;;;;;;5311768;27;20067;-73
2024/05/05 07:30:18;;;;;;;2.00;0.77;;;33.70;53.30;;;;;;5312905;26;20001;-73
2024/05/05 07:32:44;;;;;;;0.88;0.50;;;34.20;51.40;;;;;;5328790;26;20009;-71
2024/05/05 07:35:09;;;;;;;0.70;0.20;;;34.10;49.40;;;;;;5328758;26;20465;-74
2024/05/05 07:37:39;;;;;;;0.63;0.20;;;34.20;49.20;;;;;;5312675;26;20006;-73
2024/05/05 07:40:05;;;;;;;0.20;0.13;;;34.60;48.70;;;;;;5311236;27;20040;-73
2024/05/05 07:42:31;;;;;;;0.55;0.28;;;35.10;47.20;;;;;;5281302;27;20417;-75
2024/05/05 07:44:56;;;;;;;0.47;0.10;;;32.30;49.30;;;;;;5310870;27;20011;-71
2024/05/05 07:47:22;;;;;;;1.13;0.13;;;31.20;50.30;;;;;;5311462;27;20070;-73
2024/05/05 07:49:48;;;;;;;0.88;0.05;;;30.40;51.40;;;;;;5311369;27;19994;-73
2024/05/05 07:52:13;;;;;;;0.20;0.10;;;28.50;54.30;;;;;;5310963;27;20001;-71
2024/05/05 07:54:39;;;;;;;0.38;0.30;;;26.70;57.60;;;;;;5311258;27;20104;-74
2024/05/05 07:57:05;;;;;;;0.10;0.10;;;25.80;59.90;;;;;;5311195;27;19998;-72
2024/05/05 07:59:30;;;;;;;0.65;0.10;;;24.90;61.90;;;;;;5311583;27;20466;-70
2024/05/05 08:01:56;;;;;;;0.63;0.10;;;23.90;65.40;;;;;;5311218;27;20465;-73
2024/05/05 08:04:21;;;;;;;0.30;0.20;;;23.40;65.60;;;;;;5311075;27;19997;-71
2024/05/05 08:06:47;;;;;;;0.40;0.10;;;23.50;66.50;;;;;;5311464;27;20014;-71
2024/05/05 08:09:13;;;;;;;0.40;0.10;;;23.60;66.00;;;;;;5311433;27;19998;-72
2024/05/05 08:11:39;;;;;;;0.00;0.00;;;24.00;65.80;;;;;;5311027;27;19994;-70
2024/05/05 08:14:04;;;;;;;1.15;0.40;;;24.40;65.00;;;;;;5311176;27;20008;-72
2024/05/05 08:16:30;;;;;;;0.10;0.10;;;24.90;65.00;;;;;;5311231;27;20020;-72
2024/05/05 08:18:55;;;;;;;0.40;0.10;;;24.60;64.30;;;;;;5310929;27;20002;-72
2024/05/05 08:21:21;;;;;;;0.52;0.20;;;24.20;63.50;;;;;;5311398;27;20001;-71
2024/05/05 08:23:47;;;;;;;1.08;0.22;;;23.70;65.30;;;;;;5311204;27;20322;-72
2024/05/05 08:26:15;;;;;;;0.35;0.10;;;23.20;66.50;;;;;;5310622;27;20017;-71
2024/05/05 08:28:40;;;;;;;0.73;0.30;;;23.00;66.80;;;;;;5310527;27;19993;-73
2024/05/05 08:31:06;;;;;;;0.20;0.10;;;23.00;69.00;;;;;;5310911;27;20458;-72
2024/05/05 08:33:31;;;;;;;0.00;0.00;;;24.30;65.90;;;;;;5310743;27;19998;-72
2024/05/05 08:35:57;;;;;;;0.40;0.15;;;25.00;62.10;;;;;;5311329;27;20028;-71
2024/05/05 08:38:23;;;;;;;0.45;0.15;;;24.70;63.70;;;;;;5310508;27;20016;-74
2024/05/05 08:40:48;;;;;;;0.45;0.10;;;24.20;64.30;;;;;;5310558;27;20075;-73
2024/05/05 08:43:19;;;;;;;0.65;0.10;;;23.30;65.90;;;;;;5310790;27;19997;-71
2024/05/05 08:45:46;;;;;;;0.00;0.00;;;23.10;66.70;;;;;;5310798;27;19993;-73
2024/05/05 08:48:15;;;;;;;0.45;0.10;;;23.20;66.90;;;;;;5310403;27;20330;-70
2024/05/05 08:50:42;;;;;;;0.30;0.20;;;23.40;66.20;;;;;;5310691;27;19997;-73
2024/05/05 08:53:07;;;;;;;0.17;0.10;;;23.10;66.10;;;;;;5310677;27;20002;-72
2024/05/05 08:55:36;;;;;;;0.28;0.10;;;23.00;65.90;;;;;;5310833;27;20082;-72
2024/05/05 08:58:02;;;;;;;0.00;0.00;;;23.00;67.50;;;;;;5311009;27;20021;-73
2024/05/05 09:00:29;;;;;;;0.50;0.17;;;23.40;66.10;;;;;;5310567;27;20105;-74
2024/05/05 09:02:55;;;;;;;0.13;0.05;;;23.90;65.30;;;;;;5310645;27;20002;-72
2024/05/05 09:05:42;;;;;;;1.00;0.45;;;24.20;66.00;;;;;;5313046;27;20329;-73
2024/05/05 09:08:09;;;;;;;0.47;0.20;;;23.80;65.70;;;;;;5313587;27;20408;-72
2024/05/05 09:10:36;;;;;;;0.20;0.10;;;23.40;66.50;;;;;;5313525;27;20016;-72
2024/05/05 09:13:06;;;;;;;0.25;0.10;;;23.30;67.40;;;;;;5313613;27;20041;-73
2024/05/05 09:15:31;;;;;;;0.30;0.17;;;23.10;68.80;;;;;;5313312;27;20014;-72
2024/05/05 09:17:57;;;;;;;0.57;0.25;;;22.60;69.20;;;;;;5313334;27;20005;-71
2024/05/05 09:20:24;;;;;;;0.38;0.13;;;22.10;71.30;;;;;;5313589;27;19997;-73
2024/05/05 09:22:50;;;;;;;0.55;0.20;;;21.70;72.80;;;;;;5313630;27;20453;-73
2024/05/05 09:25:15;;;;;;;0.35;0.13;;;21.70;74.70;;;;;;5313592;27;19998;-72
2024/05/05 09:27:41;;;;;;;0.63;0.30;;;21.90;74.20;;;;;;5313377;27;20008;-73
2024/05/05 09:30:10;;;;;;;0.30;0.15;;;21.80;73.50;;;;;;5313365;27;20002;-70
2024/05/05 09:32:38;;;;;;;0.43;0.15;;;21.80;73.90;;;;;;5313215;27;20013;-73
2024/05/05 09:35:06;;;;;;;2.20;0.95;;;21.70;75.50;;;;;;5312750;27;20033;-71
2024/05/05 09:37:32;;;;;;;0.73;0.20;;;21.90;75.00;;;;;;5313311;27;20339;-74
2024/05/05 09:39:58;;;;;;;0.85;0.20;;;22.30;73.70;;;;;;5313332;27;19998;-70
2024/05/05 09:42:24;;;;;;;0.30;0.00;;;22.80;73.10;;;;;;5313277;27;20037;-72
2024/05/05 09:44:50;;;;;;;0.47;0.10;;;23.10;72.50;;;;;;5312875;27;19997;-71
2024/05/05 09:47:26;;;;;;;0.43;0.10;;;23.30;69.70;;;;;;5313598;27;20358;-71
2024/05/05 09:50:06;;;;;;;0.20;0.10;;;23.20;70.00;;;;;;5313146;27;20025;-70
2024/05/05 09:52:59;;;;;;;0.20;0.10;;;22.70;69.90;;;;;;5313527;27;20001;-72
2024/05/05 09:55:32;;;;;;;0.60;0.15;;;22.50;72.70;;;;;;5312820;27;19998;-72
2024/05/05 09:58:08;;;;;;;0.32;0.10;;;22.10;73.80;;;;;;5312908;27;20004;-71
2024/05/05 10:00:34;;;;;;;0.15;0.15;;;22.00;73.80;;;;;;5313809;27;20012;-71
2024/05/05 10:03:01;;;;;;;0.22;0.10;;;22.00;75.70;;;;;;5313264;27;20001;-70
2024/05/05 10:05:28;;;;;;;0.30;0.10;;;21.70;75.60;;;;;;5312716;27;19998;-70
2024/05/05 10:07:56;;;;;;;0.25;0.10;;;21.50;72.90;;;;;;5312732;27;20001;-72
2024/05/05 10:10:23;;;;;;;0.47;0.10;;;21.50;75.10;;;;;;5312987;27;20094;-70
2024/05/05 10:12:50;;;;;;;0.10;0.10;;;21.70;73.70;;;;;;5313146;27;20043;-72
2024/05/05 10:15:17;;;;;;;1.95;0.10;;;21.90;72.50;;;;;;5312420;27;20012;-74
2024/05/05 10:17:42;;;;;;;0.00;0.00;;;22.00;73.80;;;;;;5312624;27;20002;-72
2024/05/05 10:20:08;;;;;;;0.85;0.00;;;22.00;72.50;;;;;;5312710;27;20007;-72
2024/05/05 10:22:35;;;;;;;0.25;0.10;;;22.10;72.60;;;;;;5312882;27;20033;-70
2024/05/05 10:25:05;;;;;;;0.10;0.00;;;21.90;72.00;;;;;;5312660;27;20097;-73
2024/05/05 10:27:31;;;;;;;0.40;0.20;;;21.80;73.10;;;;;;5312601;27;20001;-73
2024/05/05 10:30:03;;;;;;;0.10;0.08;;;21.60;74.00;;;;;;5313271;27;19989;-73
2024/05/05 10:32:29;;;;;;;0.60;0.20;;;21.50;76.90;;;;;;5312825;27;20012;-73
2024/05/05 10:34:55;;;;;;;0.10;0.00;;;21.10;80.20;;;;;;5312447;27;19998;-73
2024/05/05 10:37:21;;;;;;;0.22;0.00;;;20.80;82.20;;;;;;5312658;27;20319;-71
2024/05/05 10:39:48;;;;;;;0.00;0.00;;;20.50;81.70;;;;;;5312531;27;20013;-73
2024/05/05 10:42:14;;;;;;;0.10;0.10;;;20.00;83.50;;;;;;5312282;27;20012;-71
2024/05/05 10:44:39;;;;;;;0.00;0.00;;;19.80;87.80;;;;;;5312518;27;20568;-70
2024/05/05 10:47:06;;;;;;;0.17;0.05;;;19.80;88.40;;;;;;5313379;27;20006;-72
2024/05/05 10:49:32;;;;;;;0.13;0.10;;;19.90;89.40;;;;;;5314231;27;20003;-73
2024/05/05 10:52:05;;;;;;;0.40;0.10;;;20.30;88.90;;;;;;5312969;27;20013;-70
2024/05/05 10:54:31;;;;;;;0.10;0.03;;;20.50;88.70;;;;;;5312736;27;20412;-71
2024/05/05 10:56:57;;;;;;;0.57;0.10;;;20.60;86.60;;;;;;5312914;27;20001;-73
2024/05/05 10:59:23;;;;;;;0.30;0.10;;;20.80;86.50;;;;;;5312479;27;20002;-72
2024/05/05 11:01:50;;;;;;;0.30;0.10;;;21.00;87.90;;;;;;5312631;27;19998;-71
2024/05/05 11:04:17;;;;;;;0.45;0.15;;;21.00;88.00;;;;;;5311880;27;20033;-70
2024/05/05 11:06:42;;;;;;;0.35;0.08;;;20.80;87.50;;;;;;5312421;27;20001;-72
2024/05/05 11:09:11;;;;;;;0.20;0.10;;;20.70;88.80;;;;;;5312440;27;20006;-73
2024/05/05 11:11:37;;;;;;;0.17;0.10;;;20.50;88.00;;;;;;5312385;27;20414;-71
2024/05/05 11:14:02;;;;;;;0.15;0.10;;;20.70;90.00;;;;;;5311922;27;20017;-72
2024/05/05 11:16:28;;;;;;;0.70;0.15;;;21.10;89.60;;;;;;5324531;26;20000;-71
2024/05/05 11:18:55;;;;;;;0.80;0.30;;;21.70;86.30;;;;;;5346509;26;20040;-71
2024/05/05 11:21:20;;;;;;;0.38;0.10;;;22.20;85.50;;;;;;5346972;26;20331;-71
2024/05/05 11:24:00;;;;;;;0.13;0.13;;;22.50;81.30;;;;;;5346239;26;20074;-71
2024/05/05 11:26:26;;;;;;;0.70;0.13;;;22.70;81.30;;;;;;5346595;26;20005;-73
2024/05/05 11:28:52;;;;;;;0.28;0.10;;;22.60;80.40;;;;;;5344910;26;20012;-70
2024/05/05 11:31:18;;;;;;;0.13;0.10;;;22.80;79.10;;;;;;5346675;26;20019;-72
2024/05/05 11:33:44;;;;;;;0.10;0.00;;;22.70;77.70;;;;;;5346111;26;20012;-71
2024/05/05 11:36:10;;;;;;;0.47;0.20;;;22.50;78.10;;;;;;5346531;26;20016;-71
2024/05/05 11:38:36;;;;;;;0.95;0.30;;;22.70;78.60;;;;;;5346159;26;20085;-72
2024/05/05 11:41:02;;;;;;;1.10;0.30;;;22.90;76.70;;;;;;5346224;26;20442;-72
2024/05/05 11:43:43;;;;;;;0.77;0.38;;;22.90;75.20;;;;;;5345958;26;20009;-72
2024/05/05 11:46:13;;;;;;;0.50;0.28;;;22.70;77.50;;;;;;5346348;26;20041;-72
2024/05/05 11:49:11;;;;;;;0.70;0.40;;;22.80;77.50;;;;;;5345582;26;20005;-72
2024/05/05 11:51:42;;;;;;;0.80;0.40;;;22.70;76.00;;;;;;5346165;26;20008;-73
2024/05/05 11:54:12;;;;;;;0.47;0.10;;;22.60;76.40;;;;;;5345763;26;20015;-70
2024/05/05 11:56:38;;;;;;;0.30;0.10;;;22.60;75.80;;;;;;5346014;26;20009;-71
2024/05/05 11:59:04;;;;;;;0.47;0.20;;;22.60;75.10;;;;;;5346016;26;20001;-74
2024/05/05 12:01:29;;;;;;;0.10;0.08;;;22.70;75.20;;;;;;5346036;26;20000;-71
2024/05/05 12:03:56;;;;;;;0.45;0.10;;;22.70;74.80;;;;;;5345755;26;20001;-73
2024/05/05 12:06:23;;;;;;;0.03;0.00;;;22.70;74.30;;;;;;5346415;26;20019;-72
2024/05/05 12:08:48;;;;;;;0.70;0.22;;;22.50;75.80;;;;;;5345943;26;20044;-71
2024/05/05 12:11:15;;;;;;;0.80;0.10;;;22.50;75.70;;;;;;5345979;26;20001;-72
2024/05/05 12:13:41;;;;;;;0.65;0.22;;;22.30;75.60;;;;;;5345724;26;20336;-73
2024/05/05 12:16:28;;;;;;;1.95;0.32;;;21.90;76.40;;;;;;5346037;26;20449;-72
2024/05/05 12:18:58;;;;;;;0.43;0.17;;;22.00;79.30;;;;;;5345580;26;19997;-72
2024/05/05 12:21:24;;;;;;;0.50;0.20;;;22.00;79.20;;;;;;5345751;26;20000;-71
2024/05/05 12:23:50;;;;;;;0.70;0.30;;;22.10;78.50;;;;;;5345746;26;20015;-71
2024/05/05 12:26:17;;;;;;;0.52;0.10;;;22.20;78.10;;;;;;5345792;26;20325;-73
2024/05/05 12:28:49;;;;;;;0.38;0.00;;;22.20;77.70;;;;;;5345594;26;20035;-74
2024/05/05 12:31:16;;;;;;;1.08;0.20;;;22.00;76.50;;;;;;5345676;26;19993;-73
2024/05/05 12:33:41;;;;;;;0.80;0.10;;;22.00;77.40;;;;;;5345044;26;20016;-72
2024/05/05 12:36:07;;;;;;;0.43;0.17;;;21.90;77.40;;;;;;5345420;26;20001;-71
2024/05/05 12:38:32;;;;;;;0.10;0.00;;;21.80;76.70;;;;;;5346619;26;20017;-74
2024/05/05 12:40:58;;;;;;;1.10;0.10;;;21.90;76.60;;;;;;5352736;26;20020;-73
2024/05/05 12:43:24;;;;;;;1.48;0.45;;;22.00;77.20;;;;;;5353127;26;20004;-70